sensor_id;sensor_type;location;lat;lon;timestamp;pressure;altitude;pressure_sealevel;temperature;humidity
74310;BME280;62722;51.142;17.052;2022-09-11T00:00:46;100024.41;;;14.71;96.40
74310;BME280;62722;51.142;17.052;2022-09-11T00:03:25;100028.31;;;14.67;96.12
74310;BME280;62722;51.142;17.052;2022-09-11T00:05:54;100027.31;;;14.68;96.55
74310;BME280;62722;51.142;17.052;2022-09-11T00:08:21;100017.69;;;14.67;96.97
74310;BME280;62722;51.142;17.052;2022-09-11T00:10:50;100021.31;;;14.66;97.04
74310;BME280;62722;51.142;17.052;2022-09-11T00:13:20;100024.91;;;14.65;96.86
74310;BME280;62722;51.142;17.052;2022-09-11T00:15:49;100014.31;;;14.65;96.13
74310;BME280;62722;51.142;17.052;2022-09-11T00:18:19;100018.19;;;14.60;96.52
74310;BME280;62722;51.142;17.052;2022-09-11T00:20:47;100020.84;;;14.60;96.20
74310;BME280;62722;51.142;17.052;2022-09-11T00:23:16;100019.88;;;14.61;96.53
74310;BME280;62722;51.142;17.052;2022-09-11T00:25:43;100026.88;;;14.63;96.81
74310;BME280;62722;51.142;17.052;2022-09-11T00:28:13;100022.41;;;14.63;96.00
74310;BME280;62722;51.142;17.052;2022-09-11T00:30:42;100022.25;;;14.65;96.59
74310;BME280;62722;51.142;17.052;2022-09-11T00:33:10;100025.78;;;14.65;97.19
74310;BME280;62722;51.142;17.052;2022-09-11T00:35:37;100025.06;;;14.63;97.07
74310;BME280;62722;51.142;17.052;2022-09-11T00:38:05;100023.22;;;14.63;96.82
74310;BME280;62722;51.142;17.052;2022-09-11T00:40:33;100022.16;;;14.66;97.15
74310;BME280;62722;51.142;17.052;2022-09-11T00:43:01;100016.25;;;14.63;96.63
74310;BME280;62722;51.142;17.052;2022-09-11T00:45:30;100020.56;;;14.63;97.14
74310;BME280;62722;51.142;17.052;2022-09-11T00:47:58;100018.75;;;14.64;96.44
74310;BME280;62722;51.142;17.052;2022-09-11T00:50:28;100016.25;;;14.63;96.94
74310;BME280;62722;51.142;17.052;2022-09-11T00:52:59;100008.56;;;14.59;97.07
74310;BME280;62722;51.142;17.052;2022-09-11T00:55:31;100018.19;;;14.60;96.50
74310;BME280;62722;51.142;17.052;2022-09-11T00:58:03;100000.72;;;14.58;96.53
74310;BME280;62722;51.142;17.052;2022-09-11T01:00:33;100003.63;;;14.55;96.70
74310;BME280;62722;51.142;17.052;2022-09-11T01:03:01;100005.56;;;14.53;96.36
74310;BME280;62722;51.142;17.052;2022-09-11T01:05:29;100003.63;;;14.55;96.72
74310;BME280;62722;51.142;17.052;2022-09-11T01:08:00;100006.41;;;14.53;96.42
74310;BME280;62722;51.142;17.052;2022-09-11T01:10:36;100007.25;;;14.54;96.86
74310;BME280;62722;51.142;17.052;2022-09-11T01:13:09;100014.66;;;14.50;95.81
74310;BME280;62722;51.142;17.052;2022-09-11T01:15:49;100011.72;;;14.53;95.97
74310;BME280;62722;51.142;17.052;2022-09-11T01:18:34;100013.69;;;14.51;96.42
74310;BME280;62722;51.142;17.052;2022-09-11T01:21:41;100014.91;;;14.47;96.80
74310;BME280;62722;51.142;17.052;2022-09-11T01:24:29;100014.03;;;14.37;96.70
74310;BME280;62722;51.142;17.052;2022-09-11T01:30:09;100014.63;;;14.30;96.19
74310;BME280;62722;51.142;17.052;2022-09-11T01:32:44;100014.13;;;14.36;96.71
74310;BME280;62722;51.142;17.052;2022-09-11T01:35:20;100019.34;;;14.37;97.06
74310;BME280;62722;51.142;17.052;2022-09-11T01:37:54;100007.44;;;14.41;96.36
74310;BME280;62722;51.142;17.052;2022-09-11T01:40:27;100005.66;;;14.42;96.93
74310;BME280;62722;51.142;17.052;2022-09-11T01:42:58;100008.19;;;14.43;96.67
74310;BME280;62722;51.142;17.052;2022-09-11T01:45:34;100005.25;;;14.46;96.02
74310;BME280;62722;51.142;17.052;2022-09-11T01:48:03;99999.94;;;14.46;96.49
74310;BME280;62722;51.142;17.052;2022-09-11T01:50:36;100006.00;;;14.48;96.03
74310;BME280;62722;51.142;17.052;2022-09-11T01:53:05;100006.09;;;14.47;95.76
74310;BME280;62722;51.142;17.052;2022-09-11T01:55:38;99998.03;;;14.48;96.39
74310;BME280;62722;51.142;17.052;2022-09-11T01:58:08;100000.78;;;14.47;95.77
74310;BME280;62722;51.142;17.052;2022-09-11T02:00:39;99994.63;;;14.46;96.18
74310;BME280;62722;51.142;17.052;2022-09-11T02:03:09;99995.88;;;14.42;96.92
74310;BME280;62722;51.142;17.052;2022-09-11T02:05:42;99995.03;;;14.42;97.43
74310;BME280;62722;51.142;17.052;2022-09-11T02:08:15;99998.22;;;14.36;97.03
74310;BME280;62722;51.142;17.052;2022-09-11T02:10:46;99998.44;;;14.33;97.30
74310;BME280;62722;51.142;17.052;2022-09-11T02:13:21;99997.03;;;14.29;97.36
74310;BME280;62722;51.142;17.052;2022-09-11T02:15:54;99994.22;;;14.30;97.49
74310;BME280;62722;51.142;17.052;2022-09-11T02:18:25;99989.19;;;14.27;97.52
74310;BME280;62722;51.142;17.052;2022-09-11T02:20:57;99988.47;;;14.25;97.15
74310;BME280;62722;51.142;17.052;2022-09-11T02:23:24;99986.09;;;14.22;97.81
74310;BME280;62722;51.142;17.052;2022-09-11T02:25:51;99984.66;;;14.18;97.26
74310;BME280;62722;51.142;17.052;2022-09-11T02:28:18;99990.25;;;14.15;97.26
74310;BME280;62722;51.142;17.052;2022-09-11T02:30:45;99984.19;;;14.13;97.37
74310;BME280;62722;51.142;17.052;2022-09-11T02:33:28;99980.59;;;14.14;96.83
74310;BME280;62722;51.142;17.052;2022-09-11T02:36:13;99986.84;;;14.13;97.10
74310;BME280;62722;51.142;17.052;2022-09-11T02:38:56;99987.69;;;14.13;97.53
74310;BME280;62722;51.142;17.052;2022-09-11T02:41:31;99985.16;;;14.12;96.97
74310;BME280;62722;51.142;17.052;2022-09-11T02:44:08;99992.09;;;14.03;96.98
74310;BME280;62722;51.142;17.052;2022-09-11T02:46:53;99986.22;;;14.00;97.36
74310;BME280;62722;51.142;17.052;2022-09-11T02:49:29;99989.09;;;13.97;97.56
74310;BME280;62722;51.142;17.052;2022-09-11T02:52:02;99982.84;;;13.98;97.34
74310;BME280;62722;51.142;17.052;2022-09-11T02:54:35;99980.91;;;14.00;97.01
74310;BME280;62722;51.142;17.052;2022-09-11T02:57:10;99990.78;;;13.98;97.87
74310;BME280;62722;51.142;17.052;2022-09-11T02:59:41;99987.44;;;13.96;98.52
74310;BME280;62722;51.142;17.052;2022-09-11T03:02:11;99984.91;;;13.94;97.37
74310;BME280;62722;51.142;17.052;2022-09-11T03:04:40;99992.03;;;13.94;97.83
74310;BME280;62722;51.142;17.052;2022-09-11T03:07:07;99981.66;;;13.91;97.23
74310;BME280;62722;51.142;17.052;2022-09-11T03:09:35;99997.31;;;13.94;97.27
74310;BME280;62722;51.142;17.052;2022-09-11T03:12:02;99997.31;;;13.94;97.82
74310;BME280;62722;51.142;17.052;2022-09-11T03:14:29;99993.13;;;13.91;98.04
74310;BME280;62722;51.142;17.052;2022-09-11T03:16:57;99985.16;;;13.91;98.42
74310;BME280;62722;51.142;17.052;2022-09-11T03:19:24;99995.53;;;13.94;97.61
74310;BME280;62722;51.142;17.052;2022-09-11T03:21:52;99996.38;;;13.95;97.68
74310;BME280;62722;51.142;17.052;2022-09-11T03:24:20;99997.06;;;13.97;97.69
74310;BME280;62722;51.142;17.052;2022-09-11T03:26:47;100013.25;;;13.94;97.17
74310;BME280;62722;51.142;17.052;2022-09-11T03:29:15;100009.38;;;13.98;97.46
74310;BME280;62722;51.142;17.052;2022-09-11T03:31:43;100009.00;;;14.02;97.78
74310;BME280;62722;51.142;17.052;2022-09-11T03:34:10;100007.19;;;14.03;97.93
74310;BME280;62722;51.142;17.052;2022-09-11T03:36:37;100019.50;;;14.04;97.34
74310;BME280;62722;51.142;17.052;2022-09-11T03:39:06;100013.19;;;14.05;96.94
74310;BME280;62722;51.142;17.052;2022-09-11T03:41:33;100021.72;;;14.08;97.81
74310;BME280;62722;51.142;17.052;2022-09-11T03:44:00;100028.03;;;14.07;98.07
74310;BME280;62722;51.142;17.052;2022-09-11T03:46:28;100032.50;;;14.07;98.17
74310;BME280;62722;51.142;17.052;2022-09-11T03:48:55;100022.25;;;14.02;98.21
74310;BME280;62722;51.142;17.052;2022-09-11T03:51:22;100039.03;;;14.03;97.70
74310;BME280;62722;51.142;17.052;2022-09-11T03:53:51;100031.06;;;14.03;98.07
74310;BME280;62722;51.142;17.052;2022-09-11T03:56:20;100026.97;;;13.99;97.71
74310;BME280;62722;51.142;17.052;2022-09-11T03:58:47;100025.03;;;14.01;97.77
74310;BME280;62722;51.142;17.052;2022-09-11T04:01:15;100025.28;;;13.98;96.93
74310;BME280;62722;51.142;17.052;2022-09-11T04:03:43;100027.69;;;14.01;97.68
74310;BME280;62722;51.142;17.052;2022-09-11T04:06:11;100026.72;;;14.02;96.64
74310;BME280;62722;51.142;17.052;2022-09-11T04:08:39;100028.53;;;14.01;96.87
74310;BME280;62722;51.142;17.052;2022-09-11T04:11:07;100026.97;;;13.99;96.71
74310;BME280;62722;51.142;17.052;2022-09-11T04:13:38;100024.31;;;13.99;97.79
74310;BME280;62722;51.142;17.052;2022-09-11T04:16:08;100027.25;;;13.96;97.53
74310;BME280;62722;51.142;17.052;2022-09-11T04:18:37;100029.16;;;13.94;96.97
74310;BME280;62722;51.142;17.052;2022-09-11T04:21:05;100031.69;;;13.95;97.45
74310;BME280;62722;51.142;17.052;2022-09-11T04:23:33;100025.66;;;13.93;97.48
74310;BME280;62722;51.142;17.052;2022-09-11T04:26:00;100014.63;;;13.88;97.36
74310;BME280;62722;51.142;17.052;2022-09-11T04:28:28;100025.81;;;13.92;97.39
74310;BME280;62722;51.142;17.052;2022-09-11T04:31:00;100034.22;;;13.97;97.16
74310;BME280;62722;51.142;17.052;2022-09-11T04:33:31;100032.28;;;13.99;97.14
74310;BME280;62722;51.142;17.052;2022-09-11T04:36:03;100028.53;;;14.01;96.97
74310;BME280;62722;51.142;17.052;2022-09-11T04:38:30;100033.56;;;14.04;97.11
74310;BME280;62722;51.142;17.052;2022-09-11T04:40:59;100024.53;;;14.07;96.91
74310;BME280;62722;51.142;17.052;2022-09-11T04:43:27;100023.44;;;14.09;96.44
74310;BME280;62722;51.142;17.052;2022-09-11T04:46:00;100026.34;;;14.06;96.80
74310;BME280;62722;51.142;17.052;2022-09-11T04:48:28;100034.81;;;14.00;96.06
74310;BME280;62722;51.142;17.052;2022-09-11T04:51:00;100031.06;;;14.03;97.41
74310;BME280;62722;51.142;17.052;2022-09-11T04:53:28;100035.41;;;14.04;96.47
74310;BME280;62722;51.142;17.052;2022-09-11T04:56:03;100037.81;;;14.07;96.22
74310;BME280;62722;51.142;17.052;2022-09-11T04:58:31;100031.50;;;14.08;96.12
74310;BME280;62722;51.142;17.052;2022-09-11T05:00:59;100031.75;;;14.05;96.38
74310;BME280;62722;51.142;17.052;2022-09-11T05:03:26;100028.16;;;14.06;97.79
74310;BME280;62722;51.142;17.052;2022-09-11T05:05:54;100027.69;;;14.01;97.94
74310;BME280;62722;51.142;17.052;2022-09-11T05:08:23;100022.38;;;14.01;97.40
74310;BME280;62722;51.142;17.052;2022-09-11T05:10:51;100027.44;;;14.04;97.49
74310;BME280;62722;51.142;17.052;2022-09-11T05:13:18;100025.50;;;14.06;97.55
74310;BME280;62722;51.142;17.052;2022-09-11T05:15:46;100024.53;;;14.07;97.50
74310;BME280;62722;51.142;17.052;2022-09-11T05:18:15;100018.22;;;14.08;97.67
74310;BME280;62722;51.142;17.052;2022-09-11T05:20:42;100030.44;;;14.10;97.27
74310;BME280;62722;51.142;17.052;2022-09-11T05:23:10;100023.06;;;14.14;98.08
74310;BME280;62722;51.142;17.052;2022-09-11T05:25:37;100029.06;;;14.16;97.67
74310;BME280;62722;51.142;17.052;2022-09-11T05:28:04;100027.13;;;14.18;97.55
74310;BME280;62722;51.142;17.052;2022-09-11T05:30:31;100024.09;;;14.23;96.78
74310;BME280;62722;51.142;17.052;2022-09-11T05:32:58;100030.94;;;14.25;96.77
74310;BME280;62722;51.142;17.052;2022-09-11T05:35:27;100028.88;;;14.29;97.08
74310;BME280;62722;51.142;17.052;2022-09-11T05:37:55;100035.88;;;14.30;96.94
74310;BME280;62722;51.142;17.052;2022-09-11T05:40:24;100036.56;;;14.32;97.14
74310;BME280;62722;51.142;17.052;2022-09-11T05:42:52;100039.34;;;14.30;96.42
74310;BME280;62722;51.142;17.052;2022-09-11T05:45:19;100034.88;;;14.31;96.63
74310;BME280;62722;51.142;17.052;2022-09-11T05:47:46;100035.50;;;14.34;96.46
74310;BME280;62722;51.142;17.052;2022-09-11T05:50:14;100045.88;;;14.37;96.03
74310;BME280;62722;51.142;17.052;2022-09-11T05:52:43;100038.63;;;14.39;96.33
74310;BME280;62722;51.142;17.052;2022-09-11T05:55:10;100044.38;;;14.44;96.01
74310;BME280;62722;51.142;17.052;2022-09-11T05:57:37;100041.00;;;14.42;95.90
74310;BME280;62722;51.142;17.052;2022-09-11T06:00:05;100050.28;;;14.48;96.48
74310;BME280;62722;51.142;17.052;2022-09-11T06:02:32;100047.47;;;14.49;96.04
74310;BME280;62722;51.142;17.052;2022-09-11T06:04:59;100045.81;;;14.48;96.44
74310;BME280;62722;51.142;17.052;2022-09-11T06:07:27;100049.44;;;14.47;95.86
74310;BME280;62722;51.142;17.052;2022-09-11T06:09:55;100046.63;;;14.49;96.08
74310;BME280;62722;51.142;17.052;2022-09-11T06:12:24;100055.31;;;14.51;96.04
74310;BME280;62722;51.142;17.052;2022-09-11T06:14:53;100052.53;;;14.52;95.66
74310;BME280;62722;51.142;17.052;2022-09-11T06:17:20;100056.59;;;14.56;96.28
74310;BME280;62722;51.142;17.052;2022-09-11T06:19:47;100061.22;;;14.54;96.41
74310;BME280;62722;51.142;17.052;2022-09-11T06:22:15;100058.94;;;14.50;96.32
74310;BME280;62722;51.142;17.052;2022-09-11T06:24:42;100070.72;;;14.57;96.13
74310;BME280;62722;51.142;17.052;2022-09-11T06:27:10;100074.97;;;14.59;95.96
74310;BME280;62722;51.142;17.052;2022-09-11T06:29:37;100069.66;;;14.59;96.13
74310;BME280;62722;51.142;17.052;2022-09-11T06:32:05;100069.75;;;14.58;96.22
74310;BME280;62722;51.142;17.052;2022-09-11T06:34:32;100067.38;;;14.55;95.85
74310;BME280;62722;51.142;17.052;2022-09-11T06:36:59;100072.81;;;14.53;96.54
74310;BME280;62722;51.142;17.052;2022-09-11T06:39:26;100073.78;;;14.52;95.78
74310;BME280;62722;51.142;17.052;2022-09-11T06:41:53;100074.50;;;14.54;96.40
74310;BME280;62722;51.142;17.052;2022-09-11T06:44:22;100084.38;;;14.52;96.25
74310;BME280;62722;51.142;17.052;2022-09-11T06:46:52;100070.16;;;14.53;95.59
74310;BME280;62722;51.142;17.052;2022-09-11T06:49:19;100073.91;;;14.51;96.07
74310;BME280;62722;51.142;17.052;2022-09-11T06:51:46;100078.84;;;14.55;95.98
74310;BME280;62722;51.142;17.052;2022-09-11T06:54:13;100078.84;;;14.55;96.90
74310;BME280;62722;51.142;17.052;2022-09-11T06:56:41;100078.25;;;14.52;96.10
74310;BME280;62722;51.142;17.052;2022-09-11T06:59:10;100084.53;;;14.51;95.94
74310;BME280;62722;51.142;17.052;2022-09-11T07:01:39;100086.22;;;14.52;96.27
74310;BME280;62722;51.142;17.052;2022-09-11T07:04:06;100082.72;;;14.51;95.50
74310;BME280;62722;51.142;17.052;2022-09-11T07:06:33;100084.16;;;14.55;95.75
74310;BME280;62722;51.142;17.052;2022-09-11T07:09:03;100092.69;;;14.59;96.33
74310;BME280;62722;51.142;17.052;2022-09-11T07:11:33;100082.78;;;14.61;95.88
74310;BME280;62722;51.142;17.052;2022-09-11T07:14:02;100087.13;;;14.62;95.76
74310;BME280;62722;51.142;17.052;2022-09-11T07:16:31;100088.66;;;14.65;95.60
74310;BME280;62722;51.142;17.052;2022-09-11T07:18:59;100090.47;;;14.64;95.21
74310;BME280;62722;51.142;17.052;2022-09-11T07:21:28;100081.44;;;14.67;95.38
74310;BME280;62722;51.142;17.052;2022-09-11T07:23:56;100079.34;;;14.70;94.89
74310;BME280;62722;51.142;17.052;2022-09-11T07:26:26;100073.19;;;14.70;95.66
74310;BME280;62722;51.142;17.052;2022-09-11T07:28:54;100079.94;;;14.74;95.06
74310;BME280;62722;51.142;17.052;2022-09-11T07:31:24;100080.91;;;14.73;95.04
74310;BME280;62722;51.142;17.052;2022-09-11T07:33:53;100079.09;;;14.73;94.88
74310;BME280;62722;51.142;17.052;2022-09-11T07:36:25;100067.91;;;14.79;94.36
74310;BME280;62722;51.142;17.052;2022-09-11T07:38:52;100081.78;;;14.83;94.87
74310;BME280;62722;51.142;17.052;2022-09-11T07:41:21;100076.94;;;14.88;94.68
74310;BME280;62722;51.142;17.052;2022-09-11T07:43:51;100072.00;;;14.83;94.08
74310;BME280;62722;51.142;17.052;2022-09-11T07:46:18;100083.78;;;14.90;94.62
74310;BME280;62722;51.142;17.052;2022-09-11T07:48:46;100084.75;;;14.89;94.58
74310;BME280;62722;51.142;17.052;2022-09-11T07:51:15;100090.91;;;14.90;94.10
74310;BME280;62722;51.142;17.052;2022-09-11T07:53:45;100091.63;;;14.92;94.84
74310;BME280;62722;51.142;17.052;2022-09-11T07:56:14;100087.41;;;14.89;93.44
74310;BME280;62722;51.142;17.052;2022-09-11T07:58:43;100090.78;;;14.91;93.61
74310;BME280;62722;51.142;17.052;2022-09-11T08:01:12;100096.41;;;14.98;93.86
74310;BME280;62722;51.142;17.052;2022-09-11T08:03:40;100099.53;;;15.03;94.15
74310;BME280;62722;51.142;17.052;2022-09-11T08:06:10;100101.78;;;15.07;93.62
74310;BME280;62722;51.142;17.052;2022-09-11T08:08:38;100103.75;;;15.15;93.09
74310;BME280;62722;51.142;17.052;2022-09-11T08:11:09;100100.84;;;15.18;93.74
74310;BME280;62722;51.142;17.052;2022-09-11T08:13:37;100098.44;;;15.15;93.41
74310;BME280;62722;51.142;17.052;2022-09-11T08:16:05;100101.81;;;15.17;92.15
74310;BME280;62722;51.142;17.052;2022-09-11T08:18:32;100115.88;;;15.29;93.41
74310;BME280;62722;51.142;17.052;2022-09-11T08:21:03;100113.91;;;15.31;91.42
74310;BME280;62722;51.142;17.052;2022-09-11T08:23:31;100114.06;;;15.39;92.38
74310;BME280;62722;51.142;17.052;2022-09-11T08:26:04;100113.88;;;15.51;92.57
74310;BME280;62722;51.142;17.052;2022-09-11T08:28:34;100113.06;;;15.61;91.80
74310;BME280;62722;51.142;17.052;2022-09-11T08:31:02;100113.47;;;15.56;90.17
74310;BME280;62722;51.142;17.052;2022-09-11T08:33:30;100121.31;;;15.57;90.76
74310;BME280;62722;51.142;17.052;2022-09-11T08:35:58;100118.25;;;15.62;90.96
74310;BME280;62722;51.142;17.052;2022-09-11T08:38:27;100133.66;;;15.58;90.35
74310;BME280;62722;51.142;17.052;2022-09-11T08:40:55;100129.00;;;15.51;90.48
74310;BME280;62722;51.142;17.052;2022-09-11T08:43:26;100139.31;;;15.44;90.65
74310;BME280;62722;51.142;17.052;2022-09-11T08:46:01;100136.38;;;15.47;91.32
74310;BME280;62722;51.142;17.052;2022-09-11T08:48:33;100130.81;;;15.50;91.44
74310;BME280;62722;51.142;17.052;2022-09-11T08:51:02;100132.88;;;15.47;91.09
74310;BME280;62722;51.142;17.052;2022-09-11T08:53:30;100126.41;;;15.40;90.52
74310;BME280;62722;51.142;17.052;2022-09-11T08:56:01;100135.75;;;15.34;90.33
74310;BME280;62722;51.142;17.052;2022-09-11T08:58:34;100129.91;;;15.40;91.13
74310;BME280;62722;51.142;17.052;2022-09-11T09:01:16;100129.38;;;15.46;91.44
74310;BME280;62722;51.142;17.052;2022-09-11T09:03:57;100120.94;;;15.41;90.65
74310;BME280;62722;51.142;17.052;2022-09-11T09:06:45;100126.69;;;15.46;91.53
74310;BME280;62722;51.142;17.052;2022-09-11T09:09:22;100139.13;;;15.36;90.76
74310;BME280;62722;51.142;17.052;2022-09-11T09:11:58;100138.13;;;15.37;90.91
74310;BME280;62722;51.142;17.052;2022-09-11T09:14:50;100135.22;;;15.40;91.30
74310;BME280;62722;51.142;17.052;2022-09-11T09:17:26;100137.81;;;15.51;90.12
74310;BME280;62722;51.142;17.052;2022-09-11T09:19:58;100141.47;;;15.60;91.13
74310;BME280;62722;51.142;17.052;2022-09-11T09:22:35;100149.06;;;15.65;90.52
74310;BME280;62722;51.142;17.052;2022-09-11T09:25:08;100137.28;;;15.67;90.73
74310;BME280;62722;51.142;17.052;2022-09-11T09:27:39;100146.28;;;15.76;89.53
74310;BME280;62722;51.142;17.052;2022-09-11T09:30:14;100143.06;;;15.82;89.97
74310;BME280;62722;51.142;17.052;2022-09-11T09:32:47;100143.50;;;15.87;89.68
74310;BME280;62722;51.142;17.052;2022-09-11T09:35:21;100139.59;;;15.91;89.19
74310;BME280;62722;51.142;17.052;2022-09-11T09:37:51;100137.38;;;15.96;89.46
74310;BME280;62722;51.142;17.052;2022-09-11T09:40:19;100141.16;;;16.03;89.08
74310;BME280;62722;51.142;17.052;2022-09-11T09:42:58;100136.13;;;16.10;88.76
74310;BME280;62722;51.142;17.052;2022-09-11T09:45:38;100135.72;;;16.14;88.38
74310;BME280;62722;51.142;17.052;2022-09-11T09:48:10;100132.91;;;16.25;87.92
74310;BME280;62722;51.142;17.052;2022-09-11T09:50:39;100130.38;;;16.24;88.05
74310;BME280;62722;51.142;17.052;2022-09-11T09:53:14;100131.22;;;16.24;88.48
74310;BME280;62722;51.142;17.052;2022-09-11T09:55:45;100133.16;;;16.22;86.88
74310;BME280;62722;51.142;17.052;2022-09-11T09:58:35;100129.53;;;16.23;86.65
74310;BME280;62722;51.142;17.052;2022-09-11T10:01:44;100130.38;;;16.33;86.94
74310;BME280;62722;51.142;17.052;2022-09-11T10:04:16;100132.91;;;16.35;85.64
74310;BME280;62722;51.142;17.052;2022-09-11T10:06:45;100131.38;;;16.32;84.75
74310;BME280;62722;51.142;17.052;2022-09-11T10:09:21;100132.47;;;16.30;85.73
74310;BME280;62722;51.142;17.052;2022-09-11T10:11:54;100143.69;;;16.33;85.23
74310;BME280;62722;51.142;17.052;2022-09-11T10:14:29;100142.19;;;16.40;85.24
74310;BME280;62722;51.142;17.052;2022-09-11T10:16:59;100142.56;;;16.45;85.33
74310;BME280;62722;51.142;17.052;2022-09-11T10:19:39;100138.81;;;16.48;85.22
74310;BME280;62722;51.142;17.052;2022-09-11T10:22:30;100137.69;;;16.50;84.55
74310;BME280;62722;51.142;17.052;2022-09-11T10:25:07;100146.06;;;16.55;83.66
74310;BME280;62722;51.142;17.052;2022-09-11T10:27:41;100143.03;;;16.60;83.17
74310;BME280;62722;51.142;17.052;2022-09-11T10:30:27;100139.78;;;16.76;84.55
74310;BME280;62722;51.142;17.052;2022-09-11T10:32:57;100144.81;;;16.88;85.67
74310;BME280;62722;51.142;17.052;2022-09-11T10:35:28;100150.53;;;17.03;85.00
74310;BME280;62722;51.142;17.052;2022-09-11T10:38:10;100144.09;;;16.96;82.60
74310;BME280;62722;51.142;17.052;2022-09-11T10:40:39;100145.22;;;17.03;81.71
74310;BME280;62722;51.142;17.052;2022-09-11T10:43:19;100138.56;;;17.17;83.60
74310;BME280;62722;51.142;17.052;2022-09-11T10:46:05;100143.78;;;17.18;81.69
74310;BME280;62722;51.142;17.052;2022-09-11T10:48:50;100140.91;;;17.29;81.01
74310;BME280;62722;51.142;17.052;2022-09-11T10:51:22;100144.88;;;17.25;80.90
74310;BME280;62722;51.142;17.052;2022-09-11T10:54:10;100134.88;;;17.27;80.16
74310;BME280;62722;51.142;17.052;2022-09-11T10:56:49;100137.25;;;17.30;80.08
74310;BME280;62722;51.142;17.052;2022-09-11T10:59:23;100145.41;;;17.29;79.22
74310;BME280;62722;51.142;17.052;2022-09-11T11:01:56;100152.75;;;17.17;79.92
74310;BME280;62722;51.142;17.052;2022-09-11T11:04:28;100150.09;;;17.08;80.21
74310;BME280;62722;51.142;17.052;2022-09-11T11:07:05;100159.09;;;16.97;79.86
74310;BME280;62722;51.142;17.052;2022-09-11T11:09:45;100153.94;;;16.95;81.08
74310;BME280;62722;51.142;17.052;2022-09-11T11:12:30;100161.38;;;16.92;81.35
74310;BME280;62722;51.142;17.052;2022-09-11T11:15:18;100166.28;;;16.87;81.70
74310;BME280;62722;51.142;17.052;2022-09-11T11:17:55;100165.00;;;16.91;82.06
74310;BME280;62722;51.142;17.052;2022-09-11T11:20:32;100158.97;;;16.89;81.34
74310;BME280;62722;51.142;17.052;2022-09-11T11:23:17;100164.72;;;16.94;81.41
74310;BME280;62722;51.142;17.052;2022-09-11T11:26:00;100183.09;;;16.97;81.47
74310;BME280;62722;51.142;17.052;2022-09-11T11:28:55;100171.59;;;17.06;81.56
74310;BME280;62722;51.142;17.052;2022-09-11T11:31:37;100166.25;;;17.06;80.56
74310;BME280;62722;51.142;17.052;2022-09-11T11:34:24;100162.16;;;17.12;80.84
74310;BME280;62722;51.142;17.052;2022-09-11T11:37:02;100163.53;;;17.16;80.76
74310;BME280;62722;51.142;17.052;2022-09-11T11:39:39;100163.53;;;17.25;81.32
74310;BME280;62722;51.142;17.052;2022-09-11T11:42:13;100167.69;;;17.37;80.00
74310;BME280;62722;51.142;17.052;2022-09-11T11:44:46;100171.63;;;17.33;79.53
74310;BME280;62722;51.142;17.052;2022-09-11T11:47:17;100175.47;;;17.21;79.18
74310;BME280;62722;51.142;17.052;2022-09-11T11:49:55;100171.25;;;17.19;79.67
74310;BME280;62722;51.142;17.052;2022-09-11T11:52:34;100171.25;;;17.19;79.78
74310;BME280;62722;51.142;17.052;2022-09-11T11:55:15;100170.44;;;17.18;79.91
74310;BME280;62722;51.142;17.052;2022-09-11T11:57:48;100181.38;;;17.15;79.45
74310;BME280;62722;51.142;17.052;2022-09-11T12:00:20;100172.25;;;17.08;80.45
74310;BME280;62722;51.142;17.052;2022-09-11T12:02:51;100167.09;;;16.97;80.25
74310;BME280;62722;51.142;17.052;2022-09-11T12:05:22;100180.28;;;16.89;82.01
74310;BME280;62722;51.142;17.052;2022-09-11T12:07:52;100185.94;;;16.76;85.17
74310;BME280;62722;51.142;17.052;2022-09-11T12:10:27;100194.59;;;16.49;86.68
74310;BME280;62722;51.142;17.052;2022-09-11T12:12:58;100195.16;;;16.24;87.32
74310;BME280;62722;51.142;17.052;2022-09-11T12:15:28;100192.03;;;16.10;89.72
74310;BME280;62722;51.142;17.052;2022-09-11T12:18:16;100197.09;;;16.13;90.75
74310;BME280;62722;51.142;17.052;2022-09-11T12:20:47;100198.63;;;16.15;91.17
74310;BME280;62722;51.142;17.052;2022-09-11T12:26:34;100210.00;;;16.17;89.60
74310;BME280;62722;51.142;17.052;2022-09-11T12:32:23;100199.63;;;16.33;90.60
74310;BME280;62722;51.142;17.052;2022-09-11T12:35:00;100205.94;;;16.42;91.23
74310;BME280;62722;51.142;17.052;2022-09-11T12:37:31;100214.38;;;16.47;91.61
74310;BME280;62722;51.142;17.052;2022-09-11T12:40:10;100199.94;;;16.49;90.89
74310;BME280;62722;51.142;17.052;2022-09-11T12:42:54;100203.63;;;16.58;91.34
74310;BME280;62722;51.142;17.052;2022-09-11T12:45:32;100197.88;;;16.63;89.83
74310;BME280;62722;51.142;17.052;2022-09-11T12:48:05;100199.97;;;16.69;89.26
74310;BME280;62722;51.142;17.052;2022-09-11T12:50:34;100200.41;;;16.74;88.91
74310;BME280;62722;51.142;17.052;2022-09-11T12:53:01;100199.81;;;16.80;88.32
74310;BME280;62722;51.142;17.052;2022-09-11T12:55:35;100199.69;;;16.81;88.71
74310;BME280;62722;51.142;17.052;2022-09-11T12:58:23;100198.28;;;16.77;87.99
74310;BME280;62722;51.142;17.052;2022-09-11T13:01:02;100201.09;;;16.76;85.52
74310;BME280;62722;51.142;17.052;2022-09-11T13:03:32;100197.44;;;16.77;86.19
74310;BME280;62722;51.142;17.052;2022-09-11T13:06:02;100193.78;;;16.78;86.71
74310;BME280;62722;51.142;17.052;2022-09-11T13:08:33;100186.78;;;16.77;87.07
74310;BME280;62722;51.142;17.052;2022-09-11T13:11:38;100192.81;;;16.79;86.29
74310;BME280;62722;51.142;17.052;2022-09-11T13:14:44;100191.66;;;16.91;86.02